sensor_id;sensor_type;location;lat;lon;timestamp;P1;durP1;ratioP1;P2;durP2;ratioP2
6145;SDS011;3104;50.348;7.620;2023-03-17T00:01:37;3.40;;;3.10;;
6145;SDS011;3104;50.348;7.620;2023-03-17T00:04:03;5.73;;;3.90;;
6145;SDS011;3104;50.348;7.620;2023-03-17T00:06:30;4.03;;;3.67;;
6145;SDS011;3104;50.348;7.620;2023-03-17T00:08:57;3.80;;;3.50;;
6145;SDS011;3104;50.348;7.620;2023-03-17T00:11:23;3.43;;;3.13;;
6145;SDS011;3104;50.348;7.620;2023-03-17T00:13:50;3.70;;;3.40;;
6145;SDS011;3104;50.348;7.620;2023-03-17T00:18:51;4.37;;;3.50;;
6145;SDS011;3104;50.348;7.620;2023-03-17T00:21:24;4.83;;;3.27;;
6145;SDS011;3104;50.348;7.620;2023-03-17T00:23:55;3.50;;;3.20;;
6145;SDS011;3104;50.348;7.620;2023-03-17T00:26:21;3.80;;;3.40;;
6145;SDS011;3104;50.348;7.620;2023-03-17T00:28:47;4.43;;;4.03;;
6145;SDS011;3104;50.348;7.620;2023-03-17T00:31:16;5.20;;;3.63;;
6145;SDS011;3104;50.348;7.620;2023-03-17T00:33:45;3.73;;;3.30;;
6145;SDS011;3104;50.348;7.620;2023-03-17T00:36:12;4.10;;;3.70;;
6145;SDS011;3104;50.348;7.620;2023-03-17T00:38:44;3.70;;;3.40;;
6145;SDS011;3104;50.348;7.620;2023-03-17T00:41:10;4.20;;;3.33;;
6145;SDS011;3104;50.348;7.620;2023-03-17T00:43:36;3.60;;;3.30;;
6145;SDS011;3104;50.348;7.620;2023-03-17T00:46:07;4.67;;;4.17;;
6145;SDS011;3104;50.348;7.620;2023-03-17T00:48:39;4.90;;;3.47;;
6145;SDS011;3104;50.348;7.620;2023-03-17T00:51:07;4.90;;;4.27;;
6145;SDS011;3104;50.348;7.620;2023-03-17T00:53:32;4.20;;;3.40;;
6145;SDS011;3104;50.348;7.620;2023-03-17T00:55:58;4.43;;;4.03;;
6145;SDS011;3104;50.348;7.620;2023-03-17T00:58:25;4.13;;;3.40;;
6145;SDS011;3104;50.348;7.620;2023-03-17T01:00:56;4.10;;;3.77;;
6145;SDS011;3104;50.348;7.620;2023-03-17T01:03:22;4.60;;;3.03;;
6145;SDS011;3104;50.348;7.620;2023-03-17T01:05:48;3.80;;;3.43;;
6145;SDS011;3104;50.348;7.620;2023-03-17T01:08:15;4.13;;;3.73;;
6145;SDS011;3104;50.348;7.620;2023-03-17T01:10:42;5.50;;;4.90;;
6145;SDS011;3104;50.348;7.620;2023-03-17T01:13:10;4.33;;;3.30;;
6145;SDS011;3104;50.348;7.620;2023-03-17T01:15:38;5.73;;;4.00;;
6145;SDS011;3104;50.348;7.620;2023-03-17T01:18:08;4.20;;;3.80;;
6145;SDS011;3104;50.348;7.620;2023-03-17T01:20:36;5.60;;;3.60;;
6145;SDS011;3104;50.348;7.620;2023-03-17T01:23:02;3.67;;;3.20;;
6145;SDS011;3104;50.348;7.620;2023-03-17T01:25:28;3.47;;;3.17;;
6145;SDS011;3104;50.348;7.620;2023-03-17T01:27:55;3.53;;;3.17;;
6145;SDS011;3104;50.348;7.620;2023-03-17T01:30:27;3.70;;;3.47;;
6145;SDS011;3104;50.348;7.620;2023-03-17T01:32:56;6.37;;;4.03;;
6145;SDS011;3104;50.348;7.620;2023-03-17T01:35:22;4.13;;;3.53;;
6145;SDS011;3104;50.348;7.620;2023-03-17T01:37:50;3.90;;;3.60;;
6145;SDS011;3104;50.348;7.620;2023-03-17T01:40:17;4.07;;;3.77;;
6145;SDS011;3104;50.348;7.620;2023-03-17T01:43:31;3.97;;;3.60;;
6145;SDS011;3104;50.348;7.620;2023-03-17T01:48:59;4.00;;;3.63;;
6145;SDS011;3104;50.348;7.620;2023-03-17T01:57:01;3.70;;;3.43;;
6145;SDS011;3104;50.348;7.620;2023-03-17T01:59:34;4.33;;;3.90;;
6145;SDS011;3104;50.348;7.620;2023-03-17T02:02:04;5.03;;;3.63;;
6145;SDS011;3104;50.348;7.620;2023-03-17T02:04:33;6.00;;;3.50;;
6145;SDS011;3104;50.348;7.620;2023-03-17T02:06:59;4.03;;;3.63;;
6145;SDS011;3104;50.348;7.620;2023-03-17T02:09:29;4.60;;;4.00;;
6145;SDS011;3104;50.348;7.620;2023-03-17T02:11:55;4.63;;;4.10;;
6145;SDS011;3104;50.348;7.620;2023-03-17T02:14:24;4.83;;;4.10;;
6145;SDS011;3104;50.348;7.620;2023-03-17T02:16:50;4.80;;;3.90;;
6145;SDS011;3104;50.348;7.620;2023-03-17T02:19:16;6.03;;;3.90;;
6145;SDS011;3104;50.348;7.620;2023-03-17T02:21:42;4.60;;;3.60;;
6145;SDS011;3104;50.348;7.620;2023-03-17T02:24:15;4.67;;;4.27;;
6145;SDS011;3104;50.348;7.620;2023-03-17T02:26:48;3.50;;;3.20;;
6145;SDS011;3104;50.348;7.620;2023-03-17T02:29:16;4.13;;;3.83;;
6145;SDS011;3104;50.348;7.620;2023-03-17T02:31:44;4.23;;;3.87;;
6145;SDS011;3104;50.348;7.620;2023-03-17T02:34:09;4.97;;;4.17;;
6145;SDS011;3104;50.348;7.620;2023-03-17T02:36:35;4.27;;;3.90;;
6145;SDS011;3104;50.348;7.620;2023-03-17T02:39:01;6.20;;;3.60;;
6145;SDS011;3104;50.348;7.620;2023-03-17T02:41:28;4.90;;;3.50;;
6145;SDS011;3104;50.348;7.620;2023-03-17T02:43:54;4.80;;;4.30;;
6145;SDS011;3104;50.348;7.620;2023-03-17T02:46:20;4.00;;;3.70;;
6145;SDS011;3104;50.348;7.620;2023-03-17T02:48:46;4.23;;;3.83;;
6145;SDS011;3104;50.348;7.620;2023-03-17T02:51:13;4.50;;;3.63;;
6145;SDS011;3104;50.348;7.620;2023-03-17T02:53:39;3.70;;;3.40;;
6145;SDS011;3104;50.348;7.620;2023-03-17T02:56:05;5.13;;;3.93;;
6145;SDS011;3104;50.348;7.620;2023-03-17T02:58:31;4.43;;;4.03;;
6145;SDS011;3104;50.348;7.620;2023-03-17T03:00:56;4.10;;;3.70;;
6145;SDS011;3104;50.348;7.620;2023-03-17T03:03:22;8.90;;;4.03;;
6145;SDS011;3104;50.348;7.620;2023-03-17T03:05:47;5.10;;;4.00;;
6145;SDS011;3104;50.348;7.620;2023-03-17T03:08:13;5.37;;;3.90;;
6145;SDS011;3104;50.348;7.620;2023-03-17T03:10:39;4.67;;;3.80;;
6145;SDS011;3104;50.348;7.620;2023-03-17T03:13:05;3.93;;;3.63;;
6145;SDS011;3104;50.348;7.620;2023-03-17T03:15:31;4.70;;;4.13;;
6145;SDS011;3104;50.348;7.620;2023-03-17T03:17:56;3.40;;;3.10;;
6145;SDS011;3104;50.348;7.620;2023-03-17T03:20:22;4.40;;;4.10;;
6145;SDS011;3104;50.348;7.620;2023-03-17T03:22:48;5.83;;;4.10;;
6145;SDS011;3104;50.348;7.620;2023-03-17T03:25:13;5.97;;;4.60;;
6145;SDS011;3104;50.348;7.620;2023-03-17T03:27:39;5.57;;;4.13;;
6145;SDS011;3104;50.348;7.620;2023-03-17T03:30:05;5.63;;;3.77;;
6145;SDS011;3104;50.348;7.620;2023-03-17T03:32:32;4.37;;;3.97;;
6145;SDS011;3104;50.348;7.620;2023-03-17T03:34:58;8.00;;;4.37;;
6145;SDS011;3104;50.348;7.620;2023-03-17T03:37:24;5.90;;;4.47;;
6145;SDS011;3104;50.348;7.620;2023-03-17T03:39:49;4.10;;;3.73;;
6145;SDS011;3104;50.348;7.620;2023-03-17T03:42:16;4.70;;;4.27;;
6145;SDS011;3104;50.348;7.620;2023-03-17T03:44:42;4.17;;;3.87;;
6145;SDS011;3104;50.348;7.620;2023-03-17T03:47:07;4.80;;;4.00;;
6145;SDS011;3104;50.348;7.620;2023-03-17T03:49:33;4.07;;;3.77;;
6145;SDS011;3104;50.348;7.620;2023-03-17T03:51:58;5.50;;;3.73;;
6145;SDS011;3104;50.348;7.620;2023-03-17T03:54:24;4.50;;;4.10;;
6145;SDS011;3104;50.348;7.620;2023-03-17T03:56:50;6.20;;;3.97;;
6145;SDS011;3104;50.348;7.620;2023-03-17T03:59:15;4.93;;;4.27;;
6145;SDS011;3104;50.348;7.620;2023-03-17T04:01:41;3.73;;;3.43;;
6145;SDS011;3104;50.348;7.620;2023-03-17T04:04:06;3.97;;;3.43;;
6145;SDS011;3104;50.348;7.620;2023-03-17T04:06:32;4.43;;;4.00;;
6145;SDS011;3104;50.348;7.620;2023-03-17T04:08:57;4.27;;;3.60;;
6145;SDS011;3104;50.348;7.620;2023-03-17T04:11:23;5.30;;;3.63;;
6145;SDS011;3104;50.348;7.620;2023-03-17T04:13:49;4.63;;;4.03;;
6145;SDS011;3104;50.348;7.620;2023-03-17T04:16:14;4.83;;;4.23;;
6145;SDS011;3104;50.348;7.620;2023-03-17T04:18:40;5.30;;;3.90;;
6145;SDS011;3104;50.348;7.620;2023-03-17T04:21:05;4.20;;;3.90;;
6145;SDS011;3104;50.348;7.620;2023-03-17T04:23:32;5.93;;;3.67;;
6145;SDS011;3104;50.348;7.620;2023-03-17T04:25:58;4.10;;;3.70;;
6145;SDS011;3104;50.348;7.620;2023-03-17T04:28:23;4.50;;;3.83;;
6145;SDS011;3104;50.348;7.620;2023-03-17T04:30:49;4.30;;;3.53;;
6145;SDS011;3104;50.348;7.620;2023-03-17T04:33:15;5.03;;;3.90;;
6145;SDS011;3104;50.348;7.620;2023-03-17T04:35:40;5.57;;;4.50;;
6145;SDS011;3104;50.348;7.620;2023-03-17T04:38:07;4.30;;;3.90;;
6145;SDS011;3104;50.348;7.620;2023-03-17T04:40:34;3.93;;;3.07;;
6145;SDS011;3104;50.348;7.620;2023-03-17T04:42:59;7.93;;;5.87;;
6145;SDS011;3104;50.348;7.620;2023-03-17T04:45:25;4.90;;;4.40;;
6145;SDS011;3104;50.348;7.620;2023-03-17T04:47:52;4.07;;;3.77;;
6145;SDS011;3104;50.348;7.620;2023-03-17T04:50:17;4.57;;;3.83;;
6145;SDS011;3104;50.348;7.620;2023-03-17T04:52:43;5.13;;;4.60;;
6145;SDS011;3104;50.348;7.620;2023-03-17T04:55:08;4.07;;;3.60;;
6145;SDS011;3104;50.348;7.620;2023-03-17T04:57:36;4.37;;;3.97;;
6145;SDS011;3104;50.348;7.620;2023-03-17T05:00:03;6.63;;;4.20;;
6145;SDS011;3104;50.348;7.620;2023-03-17T05:02:29;4.63;;;4.23;;
6145;SDS011;3104;50.348;7.620;2023-03-17T05:04:55;3.50;;;3.30;;
6145;SDS011;3104;50.348;7.620;2023-03-17T05:07:21;4.23;;;3.40;;
6145;SDS011;3104;50.348;7.620;2023-03-17T05:09:46;5.40;;;4.40;;
6145;SDS011;3104;50.348;7.620;2023-03-17T05:12:12;3.80;;;3.50;;
6145;SDS011;3104;50.348;7.620;2023-03-17T05:14:38;3.67;;;3.40;;
6145;SDS011;3104;50.348;7.620;2023-03-17T05:17:04;5.73;;;4.73;;
6145;SDS011;3104;50.348;7.620;2023-03-17T05:19:30;4.30;;;3.90;;
6145;SDS011;3104;50.348;7.620;2023-03-17T05:21:55;4.03;;;3.63;;
6145;SDS011;3104;50.348;7.620;2023-03-17T05:24:21;3.97;;;3.67;;
6145;SDS011;3104;50.348;7.620;2023-03-17T05:26:47;4.80;;;3.60;;
6145;SDS011;3104;50.348;7.620;2023-03-17T05:29:12;4.17;;;3.77;;
6145;SDS011;3104;50.348;7.620;2023-03-17T05:31:38;4.63;;;4.23;;
6145;SDS011;3104;50.348;7.620;2023-03-17T05:34:04;4.60;;;4.20;;
6145;SDS011;3104;50.348;7.620;2023-03-17T05:36:29;4.43;;;4.10;;
6145;SDS011;3104;50.348;7.620;2023-03-17T05:38:56;4.90;;;4.50;;
6145;SDS011;3104;50.348;7.620;2023-03-17T05:41:22;6.30;;;3.90;;
6145;SDS011;3104;50.348;7.620;2023-03-17T05:43:47;4.80;;;3.63;;
6145;SDS011;3104;50.348;7.620;2023-03-17T05:46:13;6.07;;;4.80;;
6145;SDS011;3104;50.348;7.620;2023-03-17T05:48:39;6.80;;;5.10;;
6145;SDS011;3104;50.348;7.620;2023-03-17T05:51:04;8.33;;;5.37;;
6145;SDS011;3104;50.348;7.620;2023-03-17T05:53:30;5.10;;;4.60;;
6145;SDS011;3104;50.348;7.620;2023-03-17T05:55:56;4.63;;;4.20;;
6145;SDS011;3104;50.348;7.620;2023-03-17T05:58:22;5.53;;;4.43;;
6145;SDS011;3104;50.348;7.620;2023-03-17T06:00:47;7.40;;;4.07;;
6145;SDS011;3104;50.348;7.620;2023-03-17T06:03:13;4.30;;;3.80;;
6145;SDS011;3104;50.348;7.620;2023-03-17T06:05:39;9.30;;;5.90;;
6145;SDS011;3104;50.348;7.620;2023-03-17T06:08:05;6.03;;;5.30;;
6145;SDS011;3104;50.348;7.620;2023-03-17T06:10:30;7.67;;;6.33;;
6145;SDS011;3104;50.348;7.620;2023-03-17T06:12:57;6.90;;;4.10;;
6145;SDS011;3104;50.348;7.620;2023-03-17T06:15:23;5.80;;;5.20;;
6145;SDS011;3104;50.348;7.620;2023-03-17T06:17:49;18.67;;;11.47;;
6145;SDS011;3104;50.348;7.620;2023-03-17T06:20:16;11.00;;;7.37;;
6145;SDS011;3104;50.348;7.620;2023-03-17T06:22:42;8.27;;;6.30;;
6145;SDS011;3104;50.348;7.620;2023-03-17T06:25:08;13.20;;;8.17;;
6145;SDS011;3104;50.348;7.620;2023-03-17T06:27:35;13.00;;;8.40;;
6145;SDS011;3104;50.348;7.620;2023-03-17T06:30:02;9.93;;;7.30;;
6145;SDS011;3104;50.348;7.620;2023-03-17T06:32:28;15.87;;;11.10;;
6145;SDS011;3104;50.348;7.620;2023-03-17T06:34:54;22.70;;;14.80;;
6145;SDS011;3104;50.348;7.620;2023-03-17T06:37:20;40.43;;;26.70;;
6145;SDS011;3104;50.348;7.620;2023-03-17T06:39:45;52.67;;;32.43;;
6145;SDS011;3104;50.348;7.620;2023-03-17T06:42:12;5.60;;;4.23;;
6145;SDS011;3104;50.348;7.620;2023-03-17T06:44:38;9.43;;;7.83;;
6145;SDS011;3104;50.348;7.620;2023-03-17T06:47:04;8.23;;;6.20;;
6145;SDS011;3104;50.348;7.620;2023-03-17T06:49:30;15.73;;;10.30;;
6145;SDS011;3104;50.348;7.620;2023-03-17T06:51:56;8.13;;;5.90;;
6145;SDS011;3104;50.348;7.620;2023-03-17T06:54:22;5.17;;;4.63;;
6145;SDS011;3104;50.348;7.620;2023-03-17T06:56:49;6.33;;;5.73;;
6145;SDS011;3104;50.348;7.620;2023-03-17T06:59:16;11.20;;;7.50;;
6145;SDS011;3104;50.348;7.620;2023-03-17T07:01:41;6.97;;;5.67;;
6145;SDS011;3104;50.348;7.620;2023-03-17T07:04:08;4.47;;;4.07;;
6145;SDS011;3104;50.348;7.620;2023-03-17T07:06:33;7.40;;;5.10;;
6145;SDS011;3104;50.348;7.620;2023-03-17T07:08:59;6.37;;;5.80;;
6145;SDS011;3104;50.348;7.620;2023-03-17T07:11:26;5.23;;;4.77;;
6145;SDS011;3104;50.348;7.620;2023-03-17T07:13:53;6.17;;;5.43;;
6145;SDS011;3104;50.348;7.620;2023-03-17T07:16:18;4.70;;;4.20;;
6145;SDS011;3104;50.348;7.620;2023-03-17T07:18:45;4.60;;;4.20;;
6145;SDS011;3104;50.348;7.620;2023-03-17T07:21:11;6.77;;;4.40;;
6145;SDS011;3104;50.348;7.620;2023-03-17T07:23:36;4.00;;;3.70;;
6145;SDS011;3104;50.348;7.620;2023-03-17T07:26:02;4.50;;;4.10;;
6145;SDS011;3104;50.348;7.620;2023-03-17T07:28:28;4.07;;;3.70;;
6145;SDS011;3104;50.348;7.620;2023-03-17T07:30:54;5.63;;;4.37;;
6145;SDS011;3104;50.348;7.620;2023-03-17T07:33:22;4.97;;;4.47;;
6145;SDS011;3104;50.348;7.620;2023-03-17T07:35:48;5.23;;;4.60;;
6145;SDS011;3104;50.348;7.620;2023-03-17T07:38:14;4.33;;;3.93;;
6145;SDS011;3104;50.348;7.620;2023-03-17T07:40:42;5.67;;;3.87;;
6145;SDS011;3104;50.348;7.620;2023-03-17T07:43:11;4.00;;;3.60;;
6145;SDS011;3104;50.348;7.620;2023-03-17T07:45:37;4.47;;;4.00;;
6145;SDS011;3104;50.348;7.620;2023-03-17T07:48:03;3.63;;;3.30;;
6145;SDS011;3104;50.348;7.620;2023-03-17T07:50:33;5.30;;;4.80;;
6145;SDS011;3104;50.348;7.620;2023-03-17T07:52:59;5.50;;;3.90;;
6145;SDS011;3104;50.348;7.620;2023-03-17T07:55:25;4.60;;;4.27;;
6145;SDS011;3104;50.348;7.620;2023-03-17T07:57:51;3.60;;;3.30;;
6145;SDS011;3104;50.348;7.620;2023-03-17T08:00:17;3.87;;;3.43;;
6145;SDS011;3104;50.348;7.620;2023-03-17T08:02:43;3.80;;;3.00;;
6145;SDS011;3104;50.348;7.620;2023-03-17T08:05:09;4.43;;;3.47;;
6145;SDS011;3104;50.348;7.620;2023-03-17T08:07:35;3.33;;;3.13;;
6145;SDS011;3104;50.348;7.620;2023-03-17T08:10:01;3.70;;;3.40;;
6145;SDS011;3104;50.348;7.620;2023-03-17T08:12:29;4.90;;;3.27;;
6145;SDS011;3104;50.348;7.620;2023-03-17T08:14:55;3.30;;;2.87;;
6145;SDS011;3104;50.348;7.620;2023-03-17T08:17:20;5.60;;;3.30;;
6145;SDS011;3104;50.348;7.620;2023-03-17T08:19:50;3.40;;;3.10;;
6145;SDS011;3104;50.348;7.620;2023-03-17T08:22:20;6.87;;;3.20;;
6145;SDS011;3104;50.348;7.620;2023-03-17T08:24:46;4.07;;;3.67;;
6145;SDS011;3104;50.348;7.620;2023-03-17T08:27:12;3.70;;;3.40;;
6145;SDS011;3104;50.348;7.620;2023-03-17T08:29:39;3.63;;;2.97;;
6145;SDS011;3104;50.348;7.620;2023-03-17T08:32:04;7.67;;;3.00;;
6145;SDS011;3104;50.348;7.620;2023-03-17T08:34:31;4.10;;;3.70;;
6145;SDS011;3104;50.348;7.620;2023-03-17T08:36:57;3.63;;;3.33;;
6145;SDS011;3104;50.348;7.620;2023-03-17T08:39:23;3.43;;;3.10;;
6145;SDS011;3104;50.348;7.620;2023-03-17T08:41:49;3.93;;;2.70;;
6145;SDS011;3104;50.348;7.620;2023-03-17T08:44:15;2.97;;;2.67;;
6145;SDS011;3104;50.348;7.620;2023-03-17T08:46:40;3.77;;;3.47;;
6145;SDS011;3104;50.348;7.620;2023-03-17T08:49:06;3.63;;;3.33;;
6145;SDS011;3104;50.348;7.620;2023-03-17T08:51:33;3.53;;;3.23;;
6145;SDS011;3104;50.348;7.620;2023-03-17T08:54:00;5.33;;;3.20;;
6145;SDS011;3104;50.348;7.620;2023-03-17T08:56:26;3.10;;;2.70;;
6145;SDS011;3104;50.348;7.620;2023-03-17T08:58:52;2.73;;;2.50;;
6145;SDS011;3104;50.348;7.620;2023-03-17T09:01:18;3.00;;;2.70;;
6145;SDS011;3104;50.348;7.620;2023-03-17T09:03:45;3.27;;;2.97;;
6145;SDS011;3104;50.348;7.620;2023-03-17T09:06:11;3.53;;;3.23;;
6145;SDS011;3104;50.348;7.620;2023-03-17T09:08:38;2.60;;;2.40;;
6145;SDS011;3104;50.348;7.620;2023-03-17T09:11:15;2.93;;;2.73;;
6145;SDS011;3104;50.348;7.620;2023-03-17T09:13:43;3.87;;;2.63;;
6145;SDS011;3104;50.348;7.620;2023-03-17T09:16:10;2.80;;;2.60;;
6145;SDS011;3104;50.348;7.620;2023-03-17T09:18:36;2.80;;;2.60;;
6145;SDS011;3104;50.348;7.620;2023-03-17T09:21:02;2.63;;;2.43;;
6145;SDS011;3104;50.348;7.620;2023-03-17T09:23:28;4.57;;;3.40;;
6145;SDS011;3104;50.348;7.620;2023-03-17T09:25:53;3.37;;;2.87;;
6145;SDS011;3104;50.348;7.620;2023-03-17T09:28:19;3.63;;;3.00;;
6145;SDS011;3104;50.348;7.620;2023-03-17T09:30:44;3.10;;;2.87;;
6145;SDS011;3104;50.348;7.620;2023-03-17T09:33:11;2.97;;;2.77;;
6145;SDS011;3104;50.348;7.620;2023-03-17T09:35:37;2.60;;;2.40;;
6145;SDS011;3104;50.348;7.620;2023-03-17T09:38:04;3.83;;;2.73;;
6145;SDS011;3104;50.348;7.620;2023-03-17T09:40:32;3.40;;;3.10;;
6145;SDS011;3104;50.348;7.620;2023-03-17T09:45:39;2.50;;;2.30;;
6145;SDS011;3104;50.348;7.620;2023-03-17T09:48:23;3.13;;;2.80;;
6145;SDS011;3104;50.348;7.620;2023-03-17T09:51:05;3.00;;;2.40;;
6145;SDS011;3104;50.348;7.620;2023-03-17T09:53:35;3.10;;;2.80;;
6145;SDS011;3104;50.348;7.620;2023-03-17T09:56:09;2.30;;;2.10;;
6145;SDS011;3104;50.348;7.620;2023-03-17T09:58:37;2.83;;;2.53;;
6145;SDS011;3104;50.348;7.620;2023-03-17T10:01:07;3.73;;;2.57;;
6145;SDS011;3104;50.348;7.620;2023-03-17T10:03:34;3.73;;;2.50;;
6145;SDS011;3104;50.348;7.620;2023-03-17T10:09:15;3.80;;;2.67;;
6145;SDS011;3104;50.348;7.620;2023-03-17T10:12:03;2.50;;;2.30;;
6145;SDS011;3104;50.348;7.620;2023-03-17T10:17:25;2.20;;;2.00;;
6145;SDS011;3104;50.348;7.620;2023-03-17T10:20:15;2.30;;;2.10;;
6145;SDS011;3104;50.348;7.620;2023-03-17T10:23:00;3.83;;;1.90;;
6145;SDS011;3104;50.348;7.620;2023-03-17T10:25:30;2.47;;;2.03;;
6145;SDS011;3104;50.348;7.620;2023-03-17T10:27:58;2.80;;;2.60;;
6145;SDS011;3104;50.348;7.620;2023-03-17T10:30:30;3.50;;;2.50;;
6145;SDS011;3104;50.348;7.620;2023-03-17T10:32:58;2.80;;;2.60;;
6145;SDS011;3104;50.348;7.620;2023-03-17T10:35:25;2.27;;;2.07;;
6145;SDS011;3104;50.348;7.620;2023-03-17T10:37:51;2.37;;;2.13;;
6145;SDS011;3104;50.348;7.620;2023-03-17T10:40:22;5.53;;;2.30;;
6145;SDS011;3104;50.348;7.620;2023-03-17T10:42:51;3.90;;;2.20;;
6145;SDS011;3104;50.348;7.620;2023-03-17T10:47:49;2.73;;;1.70;;
6145;SDS011;3104;50.348;7.620;2023-03-17T10:50:26;2.40;;;2.10;;
6145;SDS011;3104;50.348;7.620;2023-03-17T10:53:03;3.00;;;1.90;;
6145;SDS011;3104;50.348;7.620;2023-03-17T10:55:52;2.30;;;2.20;;
6145;SDS011;3104;50.348;7.620;2023-03-17T10:58:21;2.63;;;2.43;;
6145;SDS011;3104;50.348;7.620;2023-03-17T11:01:07;4.40;;;2.17;;
6145;SDS011;3104;50.348;7.620;2023-03-17T11:03:58;2.13;;;1.90;;
6145;SDS011;3104;50.348;7.620;2023-03-17T11:06:36;2.10;;;1.93;;
6145;SDS011;3104;50.348;7.620;2023-03-17T11:09:09;2.00;;;1.90;;
6145;SDS011;3104;50.348;7.620;2023-03-17T11:12:04;5.87;;;1.83;;
6145;SDS011;3104;50.348;7.620;2023-03-17T11:14:42;2.90;;;2.13;;
6145;SDS011;3104;50.348;7.620;2023-03-17T11:17:32;2.60;;;1.90;;
6145;SDS011;3104;50.348;7.620;2023-03-17T11:23:21;3.87;;;2.00;;
6145;SDS011;3104;50.348;7.620;2023-03-17T11:29:17;3.00;;;2.10;;
6145;SDS011;3104;50.348;7.620;2023-03-17T11:37:01;5.30;;;2.20;;
6145;SDS011;3104;50.348;7.620;2023-03-17T11:39:35;3.37;;;3.07;;
6145;SDS011;3104;50.348;7.620;2023-03-17T11:42:10;2.80;;;2.00;;
6145;SDS011;3104;50.348;7.620;2023-03-17T11:50:06;3.50;;;2.03;;
6145;SDS011;3104;50.348;7.620;2023-03-17T11:55:50;2.27;;;1.97;;
6145;SDS011;3104;50.348;7.620;2023-03-17T12:00:51;3.40;;;1.93;;
6145;SDS011;3104;50.348;7.620;2023-03-17T12:06:14;2.10;;;1.90;;
6145;SDS011;3104;50.348;7.620;2023-03-17T12:08:44;2.37;;;1.80;;
6145;SDS011;3104;50.348;7.620;2023-03-17T12:11:23;1.80;;;1.70;;
6145;SDS011;3104;50.348;7.620;2023-03-17T12:13:57;1.80;;;1.70;;
6145;SDS011;3104;50.348;7.620;2023-03-17T12:19:19;2.63;;;2.10;;
6145;SDS011;3104;50.348;7.620;2023-03-17T12:21:51;2.30;;;2.10;;
6145;SDS011;3104;50.348;7.620;2023-03-17T12:24:24;1.83;;;1.73;;
6145;SDS011;3104;50.348;7.620;2023-03-17T12:29:41;2.77;;;2.10;;
6145;SDS011;3104;50.348;7.620;2023-03-17T12:32:25;3.47;;;2.50;;
6145;SDS011;3104;50.348;7.620;2023-03-17T12:35:01;2.70;;;2.10;;
6145;SDS011;3104;50.348;7.620;2023-03-17T12:37:44;4.17;;;2.10;;
6145;SDS011;3104;50.348;7.620;2023-03-17T12:40:17;4.63;;;2.27;;
6145;SDS011;3104;50.348;7.620;2023-03-17T12:45:59;3.00;;;2.10;;
6145;SDS011;3104;50.348;7.620;2023-03-17T12:54:33;2.50;;;2.30;;
6145;SDS011;3104;50.348;7.620;2023-03-17T12:57:02;3.03;;;2.07;;
6145;SDS011;3104;50.348;7.620;2023-03-17T12:59:43;2.60;;;1.97;;
6145;SDS011;3104;50.348;7.620;2023-03-17T13:04:52;7.00;;;2.33;;
6145;SDS011;3104;50.348;7.620;2023-03-17T13:07:31;16.97;;;14.13;;
6145;SDS011;3104;50.348;7.620;2023-03-17T13:17:49;8.20;;;6.73;;
6145;SDS011;3104;50.348;7.620;2023-03-17T13:20:17;5.13;;;2.73;;
6145;SDS011;3104;50.348;7.620;2023-03-17T13:25:32;8.10;;;3.60;;
6145;SDS011;3104;50.348;7.620;2023-03-17T13:33:16;2.80;;;2.20;;
6145;SDS011;3104;50.348;7.620;2023-03-17T13:38:19;2.80;;;2.10;;
6145;SDS011;3104;50.348;7.620;2023-03-17T13:43:48;2.33;;;2.00;;
6145;SDS011;3104;50.348;7.620;2023-03-17T13:49:13;2.73;;;2.23;;
6145;SDS011;3104;50.348;7.620;2023-03-17T13:51:42;2.43;;;1.97;;
6145;SDS011;3104;50.348;7.620;2023-03-17T13:54:20;1.93;;;1.60;;
6145;SDS011;3104;50.348;7.620;2023-03-17T14:02:32;2.87;;;2.00;;
6145;SDS011;3104;50.348;7.620;2023-03-17T14:05:06;2.87;;;2.67;;
6145;SDS011;3104;50.348;7.620;2023-03-17T14:10:15;4.73;;;2.10;;
6145;SDS011;3104;50.348;7.620;2023-03-17T14:15:52;2.83;;;2.63;;
6145;SDS011;3104;50.348;7.620;2023-03-17T14:18:33;2.90;;;1.90;;
6145;SDS011;3104;50.348;7.620;2023-03-17T14:21:02;2.40;;;2.00;;
6145;SDS011;3104;50.348;7.620;2023-03-17T14:23:30;4.40;;;2.20;;
6145;SDS011;3104;50.348;7.620;2023-03-17T14:25:58;3.73;;;2.13;;
6145;SDS011;3104;50.348;7.620;2023-03-17T14:28:31;3.03;;;1.70;;
6145;SDS011;3104;50.348;7.620;2023-03-17T14:30:59;4.83;;;2.23;;
6145;SDS011;3104;50.348;7.620;2023-03-17T14:33:25;4.37;;;3.83;;
6145;SDS011;3104;50.348;7.620;2023-03-17T14:35:55;2.77;;;1.63;;
6145;SDS011;3104;50.348;7.620;2023-03-17T14:38:24;2.10;;;1.90;;
6145;SDS011;3104;50.348;7.620;2023-03-17T14:41:05;2.47;;;1.97;;
6145;SDS011;3104;50.348;7.620;2023-03-17T14:43:40;5.20;;;2.00;;
6145;SDS011;3104;50.348;7.620;2023-03-17T14:46:14;4.80;;;2.20;;
6145;SDS011;3104;50.348;7.620;2023-03-17T14:48:51;4.60;;;2.30;;
6145;SDS011;3104;50.348;7.620;2023-03-17T14:51:36;2.53;;;2.00;;
6145;SDS011;3104;50.348;7.620;2023-03-17T14:54:08;2.43;;;2.07;;
6145;SDS011;3104;50.348;7.620;2023-03-17T14:56:47;1.90;;;1.80;;
6145;SDS011;3104;50.348;7.620;2023-03-17T14:59:42;3.10;;;2.57;;
6145;SDS011;3104;50.348;7.620;2023-03-17T15:02:22;3.90;;;2.47;;
6145;SDS011;3104;50.348;7.620;2023-03-17T15:05:00;5.63;;;2.60;;
6145;SDS011;3104;50.348;7.620;2023-03-17T15:07:41;2.80;;;2.50;;
6145;SDS011;3104;50.348;7.620;2023-03-17T15:10:14;3.23;;;2.57;;
6145;SDS011;3104;50.348;7.620;2023-03-17T15:12:41;3.50;;;2.00;;
6145;SDS011;3104;50.348;7.620;2023-03-17T15:15:21;2.57;;;2.10;;
6145;SDS011;3104;50.348;7.620;2023-03-17T15:17:50;2.43;;;2.10;;
6145;SDS011;3104;50.348;7.620;2023-03-17T15:20:19;5.10;;;2.73;;
6145;SDS011;3104;50.348;7.620;2023-03-17T15:22:54;2.63;;;2.40;;
6145;SDS011;3104;50.348;7.620;2023-03-17T15:25:37;3.57;;;2.80;;
6145;SDS011;3104;50.348;7.620;2023-03-17T15:28:10;5.20;;;2.73;;
6145;SDS011;3104;50.348;7.620;2023-03-17T15:30:40;3.73;;;2.60;;
6145;SDS011;3104;50.348;7.620;2023-03-17T15:36:03;2.73;;;2.10;;
6145;SDS011;3104;50.348;7.620;2023-03-17T15:38:30;2.53;;;2.20;;
6145;SDS011;3104;50.348;7.620;2023-03-17T15:40:56;2.43;;;2.23;;
6145;SDS011;3104;50.348;7.620;2023-03-17T15:43:21;6.00;;;2.53;;
6145;SDS011;3104;50.348;7.620;2023-03-17T15:45:53;3.13;;;2.80;;
6145;SDS011;3104;50.348;7.620;2023-03-17T15:48:24;3.57;;;3.07;;
6145;SDS011;3104;50.348;7.620;2023-03-17T15:50:53;5.00;;;2.60;;
6145;SDS011;3104;50.348;7.620;2023-03-17T15:53:21;2.70;;;2.50;;
6145;SDS011;3104;50.348;7.620;2023-03-17T15:55:46;2.93;;;2.73;;
6145;SDS011;3104;50.348;7.620;2023-03-17T15:58:12;3.27;;;2.87;;
6145;SDS011;3104;50.348;7.620;2023-03-17T16:00:38;3.37;;;3.07;;
6145;SDS011;3104;50.348;7.620;2023-03-17T16:03:07;7.70;;;6.70;;
6145;SDS011;3104;50.348;7.620;2023-03-17T16:05:48;40.27;;;31.40;;
6145;SDS011;3104;50.348;7.620;2023-03-17T16:08:14;71.70;;;46.80;;
6145;SDS011;3104;50.348;7.620;2023-03-17T16:10:41;77.20;;;46.50;;
6145;SDS011;3104;50.348;7.620;2023-03-17T16:13:08;102.40;;;59.37;;
6145;SDS011;3104;50.348;7.620;2023-03-17T16:15:38;69.37;;;54.90;;
6145;SDS011;3104;50.348;7.620;2023-03-17T16:18:09;16.97;;;15.40;;
6145;SDS011;3104;50.348;7.620;2023-03-17T16:20:40;5.07;;;4.00;;
6145;SDS011;3104;50.348;7.620;2023-03-17T16:25:38;3.70;;;3.27;;
6145;SDS011;3104;50.348;7.620;2023-03-17T16:28:18;5.30;;;4.30;;
6145;SDS011;3104;50.348;7.620;2023-03-17T16:30:45;4.10;;;3.70;;
6145;SDS011;3104;50.348;7.620;2023-03-17T16:33:19;5.10;;;4.60;;
6145;SDS011;3104;50.348;7.620;2023-03-17T16:35:50;7.03;;;3.80;;
6145;SDS011;3104;50.348;7.620;2023-03-17T16:38:18;3.60;;;3.30;;
6145;SDS011;3104;50.348;7.620;2023-03-17T16:40:49;4.20;;;3.90;;
6145;SDS011;3104;50.348;7.620;2023-03-17T16:43:19;5.33;;;4.83;;
6145;SDS011;3104;50.348;7.620;2023-03-17T16:45:49;4.23;;;3.87;;
6145;SDS011;3104;50.348;7.620;2023-03-17T16:48:17;4.60;;;4.20;;
6145;SDS011;3104;50.348;7.620;2023-03-17T16:50:43;5.27;;;3.80;;
6145;SDS011;3104;50.348;7.620;2023-03-17T16:53:08;4.70;;;4.07;;
6145;SDS011;3104;50.348;7.620;2023-03-17T16:55:34;5.00;;;4.10;;
6145;SDS011;3104;50.348;7.620;2023-03-17T16:58:05;4.53;;;3.67;;
6145;SDS011;3104;50.348;7.620;2023-03-17T17:00:54;7.80;;;4.20;;
6145;SDS011;3104;50.348;7.620;2023-03-17T17:03:26;9.67;;;4.50;;
6145;SDS011;3104;50.348;7.620;2023-03-17T17:05:53;4.30;;;3.30;;
6145;SDS011;3104;50.348;7.620;2023-03-17T17:08:18;4.63;;;4.17;;
6145;SDS011;3104;50.348;7.620;2023-03-17T17:10:44;6.03;;;4.87;;
6145;SDS011;3104;50.348;7.620;2023-03-17T17:13:10;5.00;;;4.53;;